Atlanta, Georgia
Traffic Map
Current Weather Conditions
Atlanta, Georgia
Broken Clouds
Broken Clouds
23°
Feels Like: 23°
Wind Chill: 23° Ceiling: 25000
Heat Index: 23° Visibility: 10mi
Dew Point: 18° Wind: 5mph
Humidity: 76% Direction: ° ()
Pressure: 30.24in Gusts: 0mph
Raw Report DataKATL 291352Z VRB04KT 10SM FEW015 SCT055 BKN250 23/18 A3024 RMK AO2 SLP231 T02280183
Traffic Incident Summary
Active as of:
Severity:
Category:
InformationThere was an issue retrieving the traffic information for this location. Please try a different location or try again shortly.
Advertisements
Track Severe Weather on mobile